createdAt,value
2022-09-04T00:01:31.745Z,57.43
2022-09-04T00:04:11.381Z,57.62
2022-09-04T00:06:49.714Z,57.50
2022-09-04T00:09:26.679Z,57.32
2022-09-04T00:12:04.315Z,57.14
2022-09-04T00:14:40.612Z,57.27
2022-09-04T00:17:15.523Z,57.17
2022-09-04T00:19:49.962Z,57.68
2022-09-04T00:22:28.405Z,57.56
2022-09-04T00:25:04.186Z,57.29
2022-09-04T00:27:44.245Z,57.34
2022-09-04T00:30:17.387Z,57.67
2022-09-04T00:32:50.360Z,57.46
2022-09-04T00:37:56.408Z,57.69
2022-09-04T00:40:31.295Z,57.49
2022-09-04T00:43:50.092Z,57.34
2022-09-04T00:46:48.459Z,57.39
2022-09-04T00:49:38.414Z,57.63
2022-09-04T00:52:16.941Z,57.55
2022-09-04T00:54:53.669Z,57.42
2022-09-04T00:57:57.890Z,57.46
2022-09-04T01:00:28.933Z,57.58
2022-09-04T01:03:20.049Z,57.33
2022-09-04T01:06:04.995Z,57.40
2022-09-04T01:08:48.981Z,57.64
2022-09-04T01:11:38.296Z,57.65
2022-09-04T01:14:15.305Z,57.48
2022-09-04T01:16:49.210Z,57.52
2022-09-04T01:19:31.733Z,57.49
2022-09-04T01:22:18.123Z,57.51
2022-09-04T01:25:00.593Z,57.63
2022-09-04T01:27:33.721Z,57.88
2022-09-04T01:30:08.120Z,57.99
2022-09-04T01:32:46.844Z,57.71
2022-09-04T01:35:25.424Z,58.16
2022-09-04T01:38:03.213Z,57.93
2022-09-04T01:40:38.150Z,58.06
2022-09-04T01:43:12.060Z,57.81
2022-09-04T01:45:54.498Z,58.01
2022-09-04T01:48:33.090Z,58.00
2022-09-04T01:51:10.052Z,58.10
2022-09-04T01:53:43.340Z,58.31
2022-09-04T01:56:16.116Z,58.25
2022-09-04T01:58:54.621Z,58.02
2022-09-04T02:01:33.223Z,58.06
2022-09-04T02:04:08.071Z,58.29
2022-09-04T02:06:48.292Z,58.23
2022-09-04T02:09:29.971Z,58.17
2022-09-04T02:12:10.510Z,57.97
2022-09-04T02:14:48.322Z,58.04
2022-09-04T02:17:22.561Z,58.14
2022-09-04T02:20:04.035Z,58.29
2022-09-04T02:22:42.336Z,58.36
2022-09-04T02:25:21.839Z,58.54
2022-09-04T02:27:55.698Z,58.68
2022-09-04T02:30:25.181Z,58.46
2022-09-04T02:33:01.320Z,58.47
2022-09-04T02:35:35.235Z,58.35
2022-09-04T02:38:13.057Z,58.60
2022-09-04T02:40:51.226Z,58.72
2022-09-04T02:43:35.658Z,58.47
2022-09-04T02:46:11.293Z,58.80
2022-09-04T02:48:52.476Z,59.19
2022-09-04T02:51:32.102Z,59.26
2022-09-04T02:54:08.146Z,58.92
2022-09-04T02:56:45.598Z,59.42
2022-09-04T02:59:35.655Z,59.21
2022-09-04T03:02:06.673Z,59.51
2022-09-04T03:04:41.424Z,59.50
2022-09-04T03:07:14.600Z,59.40
2022-09-04T03:09:46.592Z,59.30
2022-09-04T03:12:28.823Z,59.07
2022-09-04T03:15:04.551Z,59.32
2022-09-04T03:17:45.896Z,59.50
2022-09-04T03:20:19.982Z,59.41
2022-09-04T03:22:55.846Z,59.74
2022-09-04T03:25:49.727Z,59.87
2022-09-04T03:28:27.112Z,59.67
2022-09-04T03:30:58.429Z,59.80
2022-09-04T03:33:34.168Z,59.51
2022-09-04T03:36:09.521Z,59.66
2022-09-04T03:38:44.440Z,59.51
2022-09-04T03:41:30.529Z,59.44
2022-09-04T03:44:12.469Z,59.21
2022-09-04T03:46:53.563Z,59.18
2022-09-04T03:49:38.671Z,59.44
2022-09-04T03:52:18.414Z,59.21
2022-09-04T03:55:01.858Z,59.73
2022-09-04T03:57:47.114Z,60.08
2022-09-04T04:00:18.324Z,60.22
2022-09-04T04:03:16.182Z,59.61
2022-09-04T04:06:00.042Z,60.25
2022-09-04T04:08:43.818Z,60.25
2022-09-04T04:11:29.502Z,59.98
2022-09-04T04:14:16.627Z,59.92
2022-09-04T04:16:56.066Z,59.98
2022-09-04T04:19:45.744Z,60.37
2022-09-04T04:22:28.826Z,60.14
2022-09-04T04:25:07.523Z,60.03
2022-09-04T04:27:49.967Z,60.20
2022-09-04T04:30:19.606Z,60.15
2022-09-04T04:33:24.171Z,60.25
2022-09-04T04:35:56.845Z,60.25
2022-09-04T04:39:00.771Z,60.40
2022-09-04T04:41:57.259Z,59.75
2022-09-04T04:44:53.432Z,60.04
2022-09-04T04:47:24.653Z,59.85
2022-09-04T04:50:04.116Z,59.64
2022-09-04T04:52:46.043Z,59.68
2022-09-04T04:55:25.413Z,59.60
2022-09-04T04:58:05.621Z,59.98
2022-09-04T05:00:40.185Z,60.20
2022-09-04T05:03:19.404Z,59.78
2022-09-04T05:05:56.300Z,59.98
2022-09-04T05:08:32.949Z,60.03
2022-09-04T05:11:10.435Z,59.56
2022-09-04T05:13:52.882Z,59.80
2022-09-04T05:16:30.781Z,59.92
2022-09-04T05:19:08.446Z,60.04
2022-09-04T05:21:40.627Z,60.09
2022-09-04T05:24:16.407Z,60.12
2022-09-04T05:26:51.858Z,60.12
2022-09-04T05:29:32.293Z,60.17
2022-09-04T05:32:09.495Z,59.92
2022-09-04T05:34:53.624Z,60.29
2022-09-04T05:37:28.934Z,60.25
2022-09-04T05:40:05.933Z,60.09
2022-09-04T05:42:53.916Z,60.07
2022-09-04T05:45:26.306Z,60.63
2022-09-04T05:48:08.948Z,60.51
2022-09-04T05:51:20.217Z,60.83
2022-09-04T05:54:18.811Z,60.66
2022-09-04T05:57:11.633Z,60.88
2022-09-04T06:00:16.122Z,60.96
2022-09-04T06:03:25.549Z,60.61
2022-09-04T06:06:08.387Z,60.50
2022-09-04T06:08:59.227Z,60.76
2022-09-04T06:11:45.963Z,60.84
2022-09-04T06:14:40.650Z,60.77
2022-09-04T06:17:27.480Z,60.84
2022-09-04T06:20:11.691Z,60.83
2022-09-04T06:22:54.997Z,60.41
2022-09-04T06:25:41.119Z,60.39
2022-09-04T06:28:33.160Z,60.85
2022-09-04T06:31:10.122Z,60.88
2022-09-04T06:33:55.321Z,60.91
2022-09-04T06:36:44.480Z,60.87
2022-09-04T06:39:39.101Z,60.72
2022-09-04T06:42:21.828Z,60.81
2022-09-04T06:45:03.330Z,60.80
2022-09-04T06:47:45.075Z,60.58
2022-09-04T06:50:24.851Z,60.34
2022-09-04T06:53:10.958Z,61.08
2022-09-04T06:55:45.818Z,60.79
2022-09-04T06:58:43.079Z,61.14
2022-09-04T07:01:17.220Z,61.02
2022-09-04T07:04:06.674Z,60.97
2022-09-04T07:06:53.079Z,60.67
2022-09-04T07:09:28.030Z,60.87
2022-09-04T07:12:18.899Z,60.36
2022-09-04T07:15:27.339Z,60.16
2022-09-04T07:18:02.913Z,59.67
2022-09-04T07:20:37.353Z,58.98
2022-09-04T07:23:25.571Z,59.68
2022-09-04T07:26:04.193Z,59.39
2022-09-04T07:28:49.567Z,59.04
2022-09-04T07:31:23.509Z,59.06
2022-09-04T07:34:02.873Z,58.13
2022-09-04T07:36:37.595Z,57.23
2022-09-04T07:39:15.478Z,57.13
2022-09-04T07:41:50.541Z,56.77
2022-09-04T07:44:24.332Z,57.27
2022-09-04T07:47:00.554Z,56.40
2022-09-04T07:49:36.080Z,56.65
2022-09-04T07:52:25.198Z,56.00
2022-09-04T07:55:19.237Z,56.14
2022-09-04T07:58:07.960Z,55.34
2022-09-04T08:00:48.662Z,55.01
2022-09-04T08:03:54.103Z,54.82
2022-09-04T08:06:31.148Z,54.95
2022-09-04T08:09:43.183Z,54.49
2022-09-04T08:12:47.631Z,55.02
2022-09-04T08:15:20.145Z,54.47
2022-09-04T08:18:10.002Z,54.02
2022-09-04T08:20:45.847Z,53.40
2022-09-04T08:23:30.616Z,53.26
2022-09-04T08:26:14.530Z,52.90
2022-09-04T08:29:03.073Z,53.28
2022-09-04T08:31:33.384Z,51.14
2022-09-04T08:34:36.032Z,52.76
2022-09-04T08:37:17.462Z,51.45
2022-09-04T08:39:56.730Z,51.55
2022-09-04T08:43:04.998Z,51.88
2022-09-04T08:46:13.427Z,50.23
2022-09-04T08:49:11.769Z,50.08
2022-09-04T08:52:34.713Z,51.03
2022-09-04T08:55:18.514Z,49.60
2022-09-04T08:58:27.205Z,49.91
2022-09-04T09:01:26.567Z,49.36
2022-09-04T09:04:20.485Z,48.29
2022-09-04T09:07:26.110Z,48.08
2022-09-04T09:10:34.703Z,48.23
2022-09-04T09:13:35.829Z,47.19
2022-09-04T09:16:20.380Z,45.63
2022-09-04T09:19:22.399Z,46.88
2022-09-04T09:22:24.506Z,46.74
2022-09-04T09:25:20.915Z,45.81
2022-09-04T09:28:36.112Z,45.74
2022-09-04T09:31:38.333Z,45.97
2022-09-04T09:34:38.044Z,45.81
2022-09-04T09:37:43.401Z,46.35
2022-09-04T09:40:33.771Z,43.92
2022-09-04T09:43:42.004Z,44.52
2022-09-04T09:46:47.272Z,44.39
2022-09-04T09:50:03.369Z,44.28
2022-09-04T09:52:56.734Z,40.91
2022-09-04T09:55:58.498Z,41.51
2022-09-04T09:59:02.690Z,42.15
2022-09-04T10:01:52.239Z,41.26
2022-09-04T10:04:51.699Z,41.66
2022-09-04T10:07:46.499Z,40.05
2022-09-04T10:10:51.524Z,39.96
2022-09-04T10:13:52.056Z,38.77
2022-09-04T10:16:47.462Z,38.87
2022-09-04T10:19:51.316Z,38.34
2022-09-04T10:22:40.397Z,36.11
2022-09-04T10:25:39.478Z,37.92
2022-09-04T10:28:31.084Z,36.37
2022-09-04T10:31:40.532Z,37.29
2022-09-04T10:34:25.793Z,36.78
2022-09-04T10:37:10.232Z,35.92
2022-09-04T10:40:09.620Z,35.82
2022-09-04T10:42:51.500Z,35.76
2022-09-04T10:45:27.685Z,33.49
2022-09-04T10:48:28.762Z,33.84
2022-09-04T10:51:08.298Z,32.94
2022-09-04T10:54:11.129Z,33.46
2022-09-04T10:56:47.958Z,33.21
2022-09-04T10:59:40.067Z,33.81
2022-09-04T11:02:35.024Z,33.94
2022-09-04T11:05:31.380Z,34.17
2022-09-04T11:08:32.573Z,34.29
2022-09-04T11:11:15.258Z,33.05
2022-09-04T11:14:03.726Z,33.64
2022-09-04T11:17:03.749Z,33.52
2022-09-04T11:20:05.154Z,33.98
2022-09-04T11:23:12.484Z,33.88
2022-09-04T11:26:10.323Z,32.88
2022-09-04T11:28:52.380Z,33.70
2022-09-04T11:31:35.315Z,33.38
2022-09-04T11:34:43.620Z,34.10
2022-09-04T11:37:45.970Z,33.56
2022-09-04T11:40:49.419Z,33.64
2022-09-04T11:43:37.361Z,33.36
2022-09-04T11:46:35.344Z,33.40
2022-09-04T11:49:44.438Z,33.61
2022-09-04T11:52:28.504Z,33.30
2022-09-04T11:55:26.549Z,33.73
2022-09-04T11:58:11.018Z,33.75
2022-09-04T12:00:51.575Z,33.64
2022-09-04T12:03:59.220Z,33.89
2022-09-04T12:06:37.718Z,33.19
2022-09-04T12:09:24.070Z,33.77
2022-09-04T12:12:25.414Z,33.70
2022-09-04T12:15:09.898Z,33.09
2022-09-04T12:18:08.858Z,34.00
2022-09-04T12:20:55.215Z,33.26
2022-09-04T12:23:34.945Z,33.74
2022-09-04T12:26:40.225Z,33.57
2022-09-04T12:30:05.606Z,34.04
2022-09-04T12:33:19.821Z,33.74
2022-09-04T12:36:14.717Z,34.07
2022-09-04T12:39:10.690Z,34.00
2022-09-04T12:41:49.748Z,33.41
2022-09-04T12:44:26.826Z,33.52
2022-09-04T12:47:08.304Z,33.23
2022-09-04T12:50:10.192Z,33.87
2022-09-04T12:52:57.418Z,33.69
2022-09-04T12:55:36.252Z,33.18
2022-09-04T12:58:13.764Z,32.44
2022-09-04T13:00:50.763Z,32.91
2022-09-04T13:03:29.686Z,33.43
2022-09-04T13:06:12.562Z,32.63
2022-09-04T13:09:00.985Z,33.10
2022-09-04T13:11:42.280Z,32.88
2022-09-04T13:14:37.601Z,33.09
2022-09-04T13:17:13.575Z,32.84
2022-09-04T13:19:51.566Z,33.58
2022-09-04T13:22:27.600Z,33.59
2022-09-04T13:25:08.972Z,33.52
2022-09-04T13:27:49.248Z,33.67
2022-09-04T13:30:22.238Z,33.48
2022-09-04T13:33:15.231Z,33.69
2022-09-04T13:35:59.391Z,33.00
2022-09-04T13:38:49.839Z,32.87
2022-09-04T13:41:57.605Z,33.18
2022-09-04T13:44:50.041Z,33.74
2022-09-04T13:47:32.129Z,32.41
2022-09-04T13:50:10.158Z,32.24
2022-09-04T13:52:42.920Z,31.79
2022-09-04T13:55:17.934Z,32.11
2022-09-04T13:57:50.040Z,32.25
2022-09-04T14:00:18.237Z,32.02
2022-09-04T14:02:47.333Z,31.67
2022-09-04T14:05:20.566Z,32.17
2022-09-04T14:07:52.125Z,31.75
2022-09-04T14:10:25.805Z,32.01
2022-09-04T14:13:12.316Z,31.77
2022-09-04T14:16:00.016Z,31.61
2022-09-04T14:18:45.289Z,31.15
2022-09-04T14:21:24.266Z,30.92
2022-09-04T14:24:03.242Z,31.51
2022-09-04T14:26:39.818Z,31.22
2022-09-04T14:29:22.371Z,31.93
2022-09-04T14:32:00.803Z,31.95
2022-09-04T14:34:38.845Z,31.36
2022-09-04T14:37:19.925Z,31.88
2022-09-04T14:39:52.596Z,31.40
2022-09-04T14:42:42.988Z,31.72
2022-09-04T14:45:24.493Z,31.14
2022-09-04T14:47:55.620Z,31.20
2022-09-04T14:50:28.497Z,32.07
2022-09-04T14:53:00.997Z,32.11
2022-09-04T14:55:31.570Z,31.68
2022-09-04T14:58:09.536Z,31.11
2022-09-04T15:00:58.676Z,31.23
2022-09-04T15:03:32.166Z,31.14
2022-09-04T15:06:08.241Z,31.21
2022-09-04T15:08:40.877Z,31.61
2022-09-04T15:11:10.708Z,30.81
2022-09-04T15:13:48.688Z,31.31
2022-09-04T15:16:29.322Z,30.85
2022-09-04T15:19:05.332Z,31.01
2022-09-04T15:21:47.179Z,31.03
2022-09-04T15:24:26.477Z,30.59
2022-09-04T15:27:03.681Z,30.35
2022-09-04T15:29:38.512Z,31.06
2022-09-04T15:32:14.207Z,31.26
2022-09-04T15:34:42.572Z,30.45
2022-09-04T15:37:20.849Z,30.97
2022-09-04T15:39:59.075Z,30.98
2022-09-04T15:42:43.701Z,30.26
2022-09-04T15:45:21.159Z,30.89
2022-09-04T15:48:11.223Z,30.59
2022-09-04T15:50:54.389Z,31.11
2022-09-04T15:53:27.318Z,30.73
2022-09-04T15:56:09.527Z,30.70
2022-09-04T15:58:49.234Z,31.26
2022-09-04T16:01:20.175Z,31.06
2022-09-04T16:04:01.389Z,30.76
2022-09-04T16:06:33.392Z,30.70
2022-09-04T16:09:07.366Z,30.23
2022-09-04T16:11:38.661Z,30.45
2022-09-04T16:14:11.233Z,31.00
2022-09-04T16:16:44.881Z,31.18
2022-09-04T16:19:27.442Z,30.93
2022-09-04T16:22:07.020Z,31.00
2022-09-04T16:24:41.032Z,31.21
2022-09-04T16:27:12.697Z,30.62
2022-09-04T16:29:46.211Z,30.79
2022-09-04T16:32:21.061Z,31.44
2022-09-04T16:34:55.136Z,31.41
2022-09-04T16:37:28.675Z,30.68
2022-09-04T16:40:06.807Z,30.60
2022-09-04T16:42:42.292Z,31.14
2022-09-04T16:45:15.377Z,31.49
2022-09-04T16:47:50.690Z,31.42
2022-09-04T16:50:27.272Z,31.93
2022-09-04T16:53:13.793Z,31.96
2022-09-04T16:55:49.872Z,33.20
2022-09-04T16:58:46.115Z,32.85
2022-09-04T17:01:21.778Z,33.86
2022-09-04T17:04:13.280Z,33.66
2022-09-04T17:06:54.253Z,34.96
2022-09-04T17:09:28.170Z,35.26
2022-09-04T17:12:01.503Z,35.89
2022-09-04T17:14:37.533Z,36.61
2022-09-04T17:17:21.538Z,36.83
2022-09-04T17:20:05.588Z,36.86
2022-09-04T17:28:54.763Z,37.06
2022-09-04T17:29:08.553Z,37.67
2022-09-04T17:29:09.378Z,37.85
2022-09-04T17:31:33.227Z,37.88
2022-09-04T17:40:34.778Z,37.92
2022-09-04T17:40:50.972Z,38.61
2022-09-04T17:40:52.365Z,39.11
2022-09-04T17:43:15.658Z,39.01
2022-09-04T17:45:51.268Z,39.49
2022-09-04T17:48:25.504Z,38.84
2022-09-04T17:50:57.151Z,39.77
2022-09-04T17:53:34.226Z,40.20
2022-09-04T17:56:13.594Z,39.86
2022-09-04T17:58:47.376Z,40.40
2022-09-04T18:01:22.030Z,39.96
2022-09-04T18:04:21.629Z,40.00
2022-09-04T18:07:00.982Z,40.27
2022-09-04T18:10:02.105Z,40.23
2022-09-04T18:12:37.420Z,40.86
2022-09-04T18:15:34.389Z,41.17
2022-09-04T18:18:08.872Z,41.62
2022-09-04T18:20:41.105Z,41.57
2022-09-04T18:23:31.418Z,41.41
2022-09-04T18:26:04.912Z,41.92
2022-09-04T18:28:41.022Z,41.74
2022-09-04T18:37:07.216Z,41.97
2022-09-04T18:37:24.736Z,42.06
2022-09-04T18:37:44.220Z,42.64
2022-09-04T18:40:13.086Z,42.67
2022-09-04T18:50:23.981Z,42.22
2022-09-04T18:50:36.087Z,42.95
2022-09-04T18:50:40.779Z,42.91
2022-09-04T18:51:31.080Z,42.84
2022-09-04T18:54:08.619Z,42.85
2022-09-04T18:56:43.916Z,42.96
2022-09-04T18:59:15.853Z,41.84
2022-09-04T19:01:48.561Z,43.14
2022-09-04T19:04:47.552Z,42.80
2022-09-04T19:07:29.930Z,43.41
2022-09-04T19:10:07.848Z,43.50
2022-09-04T19:12:46.848Z,44.14
2022-09-04T19:15:45.567Z,43.35
2022-09-04T19:18:26.842Z,43.73
2022-09-04T19:21:14.961Z,43.98
2022-09-04T19:23:50.091Z,44.56
2022-09-04T19:26:26.420Z,44.80
2022-09-04T19:28:59.122Z,44.38
2022-09-04T19:31:34.167Z,44.54
2022-09-04T19:34:13.773Z,44.32
2022-09-04T19:36:48.791Z,44.65
2022-09-04T19:45:57.761Z,44.71
2022-09-04T19:46:03.889Z,44.49
2022-09-04T19:46:16.323Z,44.30
2022-09-04T19:48:32.142Z,44.06
2022-09-04T19:53:31.773Z,44.48
2022-09-04T19:53:59.469Z,44.55
2022-09-04T19:56:32.634Z,44.91
2022-09-04T19:59:30.305Z,44.99
2022-09-04T20:02:03.695Z,44.82
2022-09-04T20:04:41.432Z,45.04
2022-09-04T20:07:18.352Z,44.93
2022-09-04T20:09:50.778Z,45.38
2022-09-04T20:12:25.327Z,45.38
2022-09-04T20:14:59.136Z,45.56
2022-09-04T20:17:41.755Z,45.46
2022-09-04T20:20:19.168Z,45.54
2022-09-04T20:22:53.835Z,45.50
2022-09-04T20:25:32.074Z,45.41
2022-09-04T20:28:16.591Z,45.51
2022-09-04T20:30:49.810Z,45.90
2022-09-04T20:33:21.964Z,45.87
2022-09-04T20:35:54.310Z,45.61
2022-09-04T20:38:30.455Z,45.65
2022-09-04T20:41:08.095Z,45.57
2022-09-04T20:43:56.131Z,45.50
2022-09-04T20:48:28.449Z,45.78
2022-09-04T20:52:51.517Z,45.64
2022-09-04T20:52:51.810Z,46.03
2022-09-04T20:55:29.307Z,45.82
2022-09-04T21:02:11.108Z,45.47
2022-09-04T21:03:17.388Z,45.99
2022-09-04T21:04:10.329Z,46.23
2022-09-04T21:06:46.001Z,45.81
2022-09-04T21:09:30.433Z,45.85
2022-09-04T21:12:16.952Z,45.99
2022-09-04T21:14:49.281Z,46.46
2022-09-04T21:17:46.547Z,46.37
2022-09-04T21:20:46.658Z,46.19
2022-09-04T21:24:07.932Z,46.16
2022-09-04T21:26:56.585Z,46.42
2022-09-04T21:29:39.774Z,46.40
2022-09-04T21:32:29.938Z,46.32
2022-09-04T21:35:06.369Z,46.40
2022-09-04T21:37:46.688Z,46.38
2022-09-04T21:40:50.922Z,46.16
2022-09-04T21:44:05.040Z,46.16
2022-09-04T21:47:08.576Z,46.38
2022-09-04T21:50:16.671Z,46.33
2022-09-04T21:53:16.990Z,46.32
2022-09-04T21:58:21.193Z,46.81
2022-09-04T22:02:36.084Z,46.84
2022-09-04T22:02:38.282Z,46.58
2022-09-04T22:05:09.978Z,46.94
2022-09-04T22:11:19.401Z,46.81
2022-09-04T22:13:39.194Z,46.84
2022-09-04T22:14:03.176Z,47.02
2022-09-04T22:16:46.983Z,47.05
2022-09-04T22:20:04.006Z,46.87
2022-09-04T22:23:03.555Z,47.06
2022-09-04T22:25:48.126Z,47.36
2022-09-04T22:28:59.307Z,47.36
2022-09-04T22:32:03.170Z,47.42
2022-09-04T22:34:52.157Z,46.81
2022-09-04T22:38:13.367Z,47.22
2022-09-04T22:40:56.049Z,47.70
2022-09-04T22:43:26.185Z,47.96
2022-09-04T22:46:17.605Z,47.76
2022-09-04T22:49:20.042Z,47.88
2022-09-04T22:52:27.440Z,47.85
2022-09-04T22:55:29.317Z,48.18
2022-09-04T22:58:10.196Z,48.06
2022-09-04T23:01:02.599Z,48.27
2022-09-04T23:03:46.690Z,48.35
2022-09-04T23:09:07.293Z,48.31
2022-09-04T23:13:53.899Z,48.39
2022-09-04T23:14:02.318Z,48.13
2022-09-04T23:16:27.923Z,48.35
2022-09-04T23:24:46.575Z,48.50
2022-09-04T23:26:34.916Z,48.88
2022-09-04T23:26:45.165Z,48.64
2022-09-04T23:28:28.183Z,49.03
2022-09-04T23:31:19.990Z,49.09
2022-09-04T23:34:18.914Z,48.67
2022-09-04T23:37:07.981Z,49.02
2022-09-04T23:40:03.484Z,49.12
2022-09-04T23:43:21.778Z,48.92
2022-09-04T23:46:14.627Z,49.09
2022-09-04T23:49:07.177Z,48.99
2022-09-04T23:51:47.421Z,48.86
2022-09-04T23:54:50.860Z,48.85
2022-09-04T23:57:28.134Z,49.05
